Log in Register

Login to your account

Username *
Password *
Remember Me

Create an account

Fields marked with an asterisk (*) are required.
Name *
Username *
Password *
Verify password *
Email *
Verify email *

Nous contacter

 Téléphone : +33 (0)4 79 54 41 81

Coordonnées détaillées et accès : cliquez ici

 
LFLB °C
    Ferienhaus Ostsee
[source: ADDS]
METAR
LFLB 180330Z AUTO VRB02KT 9999 FEW050 05/03 Q1031 =
TAF LFLB 171700Z 1718/1818 36008KT 9999 -RA BKN030 TEMPO 1718/1722 VRB10KT 3000 RA BKN010 BECMG 1723/1802 NSW SCT045
TAF
TAF LFLB 171700Z 1718/1818 36008KT 9999 -RA BKN030 TEMPO 1718/1722 VRB10KT 3000 RA BKN010 BECMG 1723/1802 NSW SCT045 =
SR / SS: 06:34 / 17:06 UTC (Lever/Coucher du soleil le 2020-02-18)
JSN Boot template designed by JoomlaShine.com